Time;durP1;ratioP1;P1;durP2;ratioP2;P2;SDS_P1;SDS_P2;PMS_P1;PMS_P2;Temp;Humidity;BMP_temperature;BMP_pressure;BME280_temperature;BME280_humidity;BME280_pressure;Samples;Min_cycle;Max_cycle;Signal;HPM_P1;HPM_P2
2022/04/05 00:01:17;;;;;;;12.68;11.70;;;2.20;99.90;;;;;;4160836;28;20452;-89
2022/04/05 00:03:19;;;;;;;14.43;13.07;;;2.10;99.90;;;;;;4174689;28;20033;-89
2022/04/05 00:05:23;;;;;;;11.35;10.57;;;2.00;99.90;;;;;;4160653;28;20037;-89
2022/04/05 00:07:25;;;;;;;13.20;12.20;;;2.00;99.90;;;;;;4160411;28;20049;-89
2022/04/05 00:09:28;;;;;;;11.65;10.80;;;2.10;99.90;;;;;;4177168;28;20045;-89
2022/04/05 00:11:31;;;;;;;9.98;9.35;;;2.10;99.90;;;;;;4176524;28;20036;-89
2022/04/05 00:13:34;;;;;;;10.93;10.05;;;2.00;99.90;;;;;;4182927;28;20508;-89
2022/04/05 00:15:36;;;;;;;11.18;10.57;;;2.10;99.90;;;;;;4155085;28;20103;-89
2022/04/05 00:17:41;;;;;;;;;;;2.10;99.90;;;;;;4187595;28;20437;-89
2022/04/05 00:19:43;;;;;;;11.48;10.50;;;1.90;99.90;;;;;;4167656;28;19921;-89
2022/04/05 00:21:46;;;;;;;9.88;9.57;;;1.80;99.90;;;;;;4152992;28;20044;-89
2022/04/05 00:23:50;;;;;;;10.25;9.75;;;1.80;99.90;;;;;;4177935;28;20071;-89
2022/04/05 00:25:52;;;;;;;9.45;8.95;;;1.90;99.90;;;;;;4176515;28;20576;-89
2022/04/05 00:27:54;;;;;;;10.95;10.40;;;1.80;99.90;;;;;;4175325;28;20061;-89
2022/04/05 00:29:59;;;;;;;10.35;9.70;;;1.70;99.90;;;;;;4176997;28;20045;-90
2022/04/05 00:32:01;;;;;;;9.80;9.38;;;1.60;99.90;;;;;;4160249;28;20050;-89
2022/04/05 00:34:05;;;;;;;9.55;9.07;;;1.50;99.90;;;;;;4176812;28;20059;-89
2022/04/05 00:36:08;;;;;;;9.50;9.23;;;1.50;99.90;;;;;;4159974;28;20065;-90
2022/04/05 00:38:11;;;;;;;10.13;9.43;;;1.40;99.90;;;;;;4185384;28;20044;-90
2022/04/05 00:40:14;;;;;;;10.40;9.52;;;1.40;99.90;;;;;;4173966;28;20038;-89
2022/04/05 00:42:17;;;;;;;9.55;8.73;;;1.30;99.90;;;;;;4146236;28;20302;-89
2022/04/05 00:44:19;;;;;;;10.00;9.30;;;1.30;99.90;;;;;;4143901;28;20072;-90
2022/04/05 00:46:22;;;;;;;9.80;9.20;;;1.30;99.90;;;;;;4176869;28;20050;-89
2022/04/05 00:48:33;;;;;;;10.27;9.85;;;1.20;99.90;;;;;;4162951;28;20432;-89
2022/04/05 00:50:38;;;;;;;9.65;8.90;;;1.20;99.90;;;;;;4145641;28;20076;-89
2022/04/05 00:52:40;;;;;;;9.18;8.55;;;1.20;99.90;;;;;;4145216;28;20105;-89
2022/04/05 00:54:44;;;;;;;8.35;8.15;;;1.30;99.90;;;;;;4161786;28;20505;-90
2022/04/05 00:56:47;;;;;;;8.27;8.00;;;1.30;99.90;;;;;;4144930;28;20041;-89
2022/04/05 00:58:52;;;;;;;8.77;8.45;;;1.30;99.90;;;;;;4144992;28;20111;-90
2022/04/05 01:00:57;;;;;;;9.18;8.80;;;1.30;99.90;;;;;;4148333;28;20046;-90
2022/04/05 01:03:00;;;;;;;9.30;8.80;;;1.20;99.90;;;;;;4162747;28;20044;-90
2022/04/05 01:05:03;;;;;;;8.23;7.95;;;1.20;99.90;;;;;;4177010;28;20094;-90
2022/04/05 01:07:08;;;;;;;;;;;1.20;99.90;;;;;;4193683;28;20435;-90
2022/04/05 01:09:10;;;;;;;9.35;9.05;;;1.20;99.90;;;;;;4160177;28;20357;-89
2022/04/05 01:11:14;;;;;;;7.45;7.15;;;1.30;99.90;;;;;;4160286;28;20188;-89
2022/04/05 01:13:42;;;;;;;9.13;8.65;;;1.30;99.90;;;;;;4154846;28;20112;-90
2022/04/05 01:15:45;;;;;;;9.35;8.95;;;1.30;99.90;;;;;;4141786;28;20046;-90
2022/04/05 01:17:47;;;;;;;8.80;8.60;;;1.40;99.90;;;;;;4119421;28;20555;-90
2022/04/05 01:19:50;;;;;;;8.43;8.02;;;1.40;99.90;;;;;;4111203;28;20058;-90
2022/04/05 01:21:53;;;;;;;8.77;8.48;;;1.30;99.90;;;;;;4115048;28;20076;-89
2022/04/05 01:24:08;;;;;;;7.70;7.32;;;1.20;99.90;;;;;;4124838;28;20094;-91
2022/04/05 01:26:11;;;;;;;6.35;6.15;;;1.20;99.90;;;;;;4124764;28;20078;-89
2022/04/05 01:28:13;;;;;;;6.70;6.50;;;1.20;99.90;;;;;;4125054;28;20058;-89
2022/04/05 01:30:16;;;;;;;6.78;6.68;;;1.20;99.90;;;;;;4142936;28;20108;-90
2022/04/05 01:32:19;;;;;;;9.65;9.02;;;1.30;99.90;;;;;;4110544;28;20097;-89
2022/04/05 01:34:24;;;;;;;10.68;9.70;;;1.20;99.90;;;;;;4110115;28;20873;-89
2022/04/05 01:36:26;;;;;;;8.05;7.82;;;1.20;99.90;;;;;;4138023;28;20076;-90
2022/04/05 01:38:28;;;;;;;8.05;7.85;;;1.10;99.90;;;;;;4141369;28;20041;-90
2022/04/05 01:40:30;;;;;;;6.97;6.75;;;1.10;99.90;;;;;;4107378;28;20043;-90
2022/04/05 01:42:34;;;;;;;7.55;7.15;;;1.10;99.90;;;;;;4124152;28;20407;-89
2022/04/05 01:44:37;;;;;;;8.13;7.93;;;1.00;99.90;;;;;;4129580;28;20042;-90
2022/04/05 01:46:40;;;;;;;9.32;9.02;;;0.90;99.90;;;;;;4118902;28;20208;-90
2022/04/05 01:48:42;;;;;;;8.68;8.35;;;0.80;99.90;;;;;;4142575;28;20053;-90
2022/04/05 01:50:44;;;;;;;8.70;8.45;;;0.80;99.90;;;;;;4111392;28;20046;-90
2022/04/05 01:52:46;;;;;;;10.13;9.20;;;0.70;99.90;;;;;;4122601;28;20509;-90
2022/04/05 01:54:49;;;;;;;8.85;8.35;;;0.70;99.90;;;;;;4189042;28;20052;-90
2022/04/05 01:56:52;;;;;;;9.10;8.90;;;0.70;99.90;;;;;;4178923;28;20879;-90
2022/04/05 01:58:56;;;;;;;10.85;10.00;;;0.80;99.90;;;;;;4172270;28;20041;-89
2022/04/05 02:01:01;;;;;;;9.07;8.70;;;0.80;99.90;;;;;;4179123;28;20055;-90
2022/04/05 02:03:04;;;;;;;9.18;8.77;;;0.80;99.90;;;;;;4162682;28;20037;-89
2022/04/05 02:05:07;;;;;;;9.00;8.43;;;0.90;99.90;;;;;;4165699;28;20550;-89
2022/04/05 02:07:16;;;;;;;8.73;8.27;;;1.00;99.90;;;;;;4162870;28;20080;-90
2022/04/05 02:09:19;;;;;;;10.63;10.23;;;1.00;99.90;;;;;;4175127;28;20793;-89
2022/04/05 02:11:23;;;;;;;9.63;9.43;;;0.80;99.90;;;;;;4161164;28;20042;-89
2022/04/05 02:13:26;;;;;;;8.98;8.63;;;0.70;99.90;;;;;;4162597;28;20041;-90
2022/04/05 02:15:28;;;;;;;9.82;9.25;;;0.60;99.90;;;;;;4180048;28;20045;-89
2022/04/05 02:17:32;;;;;;;12.07;11.35;;;0.40;99.90;;;;;;4179609;28;20041;-90
2022/04/05 02:19:38;;;;;;;9.48;9.05;;;0.30;99.90;;;;;;4154119;28;20072;-89
2022/04/05 02:21:40;;;;;;;9.68;9.10;;;0.20;99.90;;;;;;4162210;28;20499;-90
2022/04/05 02:23:42;;;;;;;10.95;10.38;;;0.10;99.90;;;;;;4162352;28;20529;-90
2022/04/05 02:26:11;;;;;;;9.80;9.40;;;0.10;99.90;;;;;;4177689;28;20037;-90
2022/04/05 02:28:13;;;;;;;9.82;9.45;;;0.10;99.90;;;;;;4108792;28;20429;-89
2022/04/05 02:30:17;;;;;;;10.38;9.68;;;0.00;99.90;;;;;;4096765;29;20055;-89
2022/04/05 02:32:19;;;;;;;9.68;9.30;;;-0.10;99.90;;;;;;4096725;29;20471;-89
2022/04/05 02:34:22;;;;;;;8.60;8.30;;;0.10;99.90;;;;;;4119964;28;20778;-90
2022/04/05 02:36:50;;;;;;;10.65;9.93;;;0.20;99.90;;;;;;4099449;28;20102;-89
2022/04/05 02:38:52;;;;;;;10.52;9.95;;;0.30;99.90;;;;;;4096812;29;20549;-89
2022/04/05 02:40:57;;;;;;;10.55;9.90;;;0.40;99.90;;;;;;4112608;28;20578;-89
2022/04/05 02:42:59;;;;;;;9.13;8.75;;;0.30;99.90;;;;;;4112231;28;20168;-89
2022/04/05 02:45:01;;;;;;;9.07;8.80;;;0.20;99.90;;;;;;4096410;29;20039;-89
2022/04/05 02:47:07;;;;;;;9.07;8.77;;;0.30;99.90;;;;;;4096357;29;20563;-89
2022/04/05 02:49:13;;;;;;;9.07;8.48;;;0.20;99.90;;;;;;4112974;28;20050;-89
2022/04/05 02:51:16;;;;;;;10.38;9.82;;;0.10;99.90;;;;;;4096425;29;20086;-89
2022/04/05 02:53:19;;;;;;;8.45;8.05;;;0.10;99.90;;;;;;4112077;28;20059;-89
2022/04/05 02:55:23;;;;;;;8.32;7.88;;;0.00;99.90;;;;;;4096839;28;20050;-89
2022/04/05 02:57:25;;;;;;;10.95;10.55;;;0.20;99.90;;;;;;4110963;28;20058;-89
2022/04/05 02:59:27;;;;;;;10.10;9.05;;;0.20;99.90;;;;;;4096266;28;20060;-89
2022/04/05 03:01:30;;;;;;;8.73;8.45;;;0.20;99.90;;;;;;4112331;28;20093;-89
2022/04/05 03:03:37;;;;;;;7.75;7.65;;;0.20;99.90;;;;;;4095711;28;20047;-89
2022/04/05 03:05:40;;;;;;;9.82;9.52;;;0.20;99.90;;;;;;4103696;28;20137;-89
2022/04/05 03:07:42;;;;;;;9.15;8.77;;;0.10;99.90;;;;;;4127768;28;20046;-89
2022/04/05 03:09:46;;;;;;;8.63;8.35;;;0.00;99.90;;;;;;4100925;28;20167;-89
2022/04/05 03:11:51;;;;;;;10.02;9.63;;;0.10;99.90;;;;;;4127276;28;20035;-89
2022/04/05 03:13:54;;;;;;;8.50;8.30;;;0.10;99.90;;;;;;4144511;28;20075;-89
2022/04/05 03:15:56;;;;;;;7.45;7.25;;;0.20;99.90;;;;;;4111766;28;20065;-89
2022/04/05 03:17:58;;;;;;;8.25;7.97;;;0.20;99.90;;;;;;4160269;28;20091;-89
2022/04/05 03:20:03;;;;;;;7.82;7.63;;;0.10;99.90;;;;;;4146540;28;20042;-89
2022/04/05 03:22:08;;;;;;;9.25;8.95;;;0.00;99.90;;;;;;4162775;28;20045;-89
2022/04/05 03:24:13;;;;;;;10.30;9.90;;;-0.10;99.90;;;;;;4162647;28;20125;-89
2022/04/05 03:26:16;;;;;;;10.50;10.07;;;-0.10;99.90;;;;;;4159577;28;20045;-89
2022/04/05 03:28:20;;;;;;;9.90;9.38;;;-0.10;99.90;;;;;;4157370;28;20116;-89
2022/04/05 03:30:23;;;;;;;11.65;11.25;;;-0.10;99.90;;;;;;4162802;28;20044;-90
2022/04/05 03:32:25;;;;;;;10.70;10.40;;;-0.20;99.90;;;;;;4162656;28;20488;-89
2022/04/05 03:34:28;;;;;;;10.30;9.73;;;-0.30;99.90;;;;;;4180800;28;20036;-89
2022/04/05 03:36:31;;;;;;;12.10;11.45;;;-0.30;99.90;;;;;;4176336;28;20119;-89
2022/04/05 03:38:33;;;;;;;20.23;16.65;;;-0.20;99.90;;;;;;4168435;28;20049;-89
2022/04/05 03:40:36;;;;;;;24.88;17.17;;;-0.20;99.90;;;;;;4164899;28;20038;-89
2022/04/05 03:42:38;;;;;;;21.48;17.77;;;-0.20;99.90;;;;;;4178989;28;20174;-89
2022/04/05 03:44:41;;;;;;;25.90;21.83;;;-0.10;99.90;;;;;;4161037;28;20045;-89
2022/04/05 03:46:44;;;;;;;22.17;19.58;;;-0.20;99.90;;;;;;4162771;28;20095;-89
2022/04/05 03:48:48;;;;;;;15.68;14.13;;;-0.30;99.90;;;;;;4162337;28;20041;-89
2022/04/05 03:50:50;;;;;;;13.43;12.10;;;-0.20;99.90;;;;;;4179064;28;20102;-89
2022/04/05 03:52:53;;;;;;;17.10;15.40;;;-0.30;99.90;;;;;;4161186;28;20053;-89
2022/04/05 03:54:55;;;;;;;26.83;20.90;;;-0.40;99.90;;;;;;4176366;28;20045;-89
2022/04/05 03:56:59;;;;;;;19.30;17.50;;;-0.50;99.90;;;;;;4178775;28;20037;-89
2022/04/05 03:59:02;;;;;;;16.17;14.77;;;-0.60;99.90;;;;;;4178826;28;20045;-89
2022/04/05 04:01:04;;;;;;;14.20;13.48;;;-0.70;99.90;;;;;;4178870;28;20050;-89
2022/04/05 04:03:08;;;;;;;12.63;11.88;;;-0.60;99.90;;;;;;4170364;28;20041;-90
2022/04/05 04:05:10;;;;;;;11.30;10.70;;;-0.40;99.90;;;;;;4162331;28;20037;-89
2022/04/05 04:07:13;;;;;;;15.38;14.02;;;-0.50;99.90;;;;;;4172451;28;20044;-89
2022/04/05 04:09:15;;;;;;;12.90;12.23;;;-0.50;99.90;;;;;;4178643;28;20114;-89
2022/04/05 04:11:17;;;;;;;14.07;13.05;;;-0.50;99.90;;;;;;4195105;28;20033;-89
2022/04/05 04:13:43;;;;;;;12.85;12.20;;;-0.50;99.90;;;;;;4176007;28;20043;-89
2022/04/05 04:15:45;;;;;;;11.10;10.40;;;-0.60;99.90;;;;;;4111223;28;20826;-89
2022/04/05 04:17:48;;;;;;;12.77;12.18;;;-0.60;99.90;;;;;;4110824;28;20054;-89
2022/04/05 04:19:52;;;;;;;12.40;11.80;;;-0.50;99.90;;;;;;4095325;28;20142;-89
2022/04/05 04:21:55;;;;;;;10.07;9.77;;;-0.60;99.90;;;;;;4110400;28;20043;-89
2022/04/05 04:23:57;;;;;;;12.10;11.70;;;-0.70;99.90;;;;;;4104097;28;20042;-90
2022/04/05 04:26:00;;;;;;;11.70;10.73;;;-0.80;99.90;;;;;;4111017;28;20043;-89
2022/04/05 04:28:08;;;;;;;12.85;11.73;;;-0.80;99.90;;;;;;4110731;28;20082;-89
2022/04/05 04:30:11;;;;;;;12.55;11.93;;;-0.80;99.90;;;;;;4095124;29;20051;-88
2022/04/05 04:32:14;;;;;;;12.73;12.40;;;-0.80;99.90;;;;;;4111044;28;20047;-89
2022/04/05 04:34:17;;;;;;;11.65;10.63;;;-0.60;99.90;;;;;;4110881;28;20039;-88
2022/04/05 04:36:20;;;;;;;12.07;11.20;;;-0.50;99.90;;;;;;4110130;28;20054;-89
2022/04/05 04:38:23;;;;;;;11.00;10.43;;;-0.50;99.90;;;;;;4094710;29;20101;-89
2022/04/05 04:40:27;;;;;;;10.35;10.05;;;-0.50;99.90;;;;;;4110800;28;20154;-89
2022/04/05 04:42:32;;;;;;;9.73;9.25;;;-0.60;99.90;;;;;;4111223;28;20042;-89
2022/04/05 04:44:35;;;;;;;10.68;10.38;;;-0.50;99.90;;;;;;4110661;28;20053;-89
2022/04/05 04:46:37;;;;;;;8.75;8.55;;;-0.50;99.90;;;;;;4094910;29;20128;-89
2022/04/05 04:48:39;;;;;;;10.73;10.35;;;-0.50;99.90;;;;;;4110462;28;20095;-89
2022/04/05 04:50:42;;;;;;;11.60;11.25;;;-0.60;99.90;;;;;;4094722;29;20035;-89
2022/04/05 04:52:45;;;;;;;13.23;12.80;;;-0.60;99.90;;;;;;4111568;28;20097;-89
2022/04/05 04:54:48;;;;;;;10.55;10.32;;;-0.80;99.90;;;;;;4177074;28;20036;-89
2022/04/05 04:56:50;;;;;;;11.13;10.85;;;-0.70;99.90;;;;;;4160285;28;20332;-89
2022/04/05 04:58:54;;;;;;;10.32;9.93;;;-0.70;99.90;;;;;;4158438;28;20037;-89
2022/04/05 05:00:57;;;;;;;10.20;9.90;;;-0.70;99.90;;;;;;4177911;28;20094;-89
2022/04/05 05:03:01;;;;;;;9.95;9.73;;;-0.70;99.90;;;;;;4178251;28;20037;-89
2022/04/05 05:05:03;;;;;;;9.55;8.95;;;-0.60;99.90;;;;;;4161065;28;20544;-89
2022/04/05 05:07:06;;;;;;;10.60;10.00;;;-0.60;99.90;;;;;;4160306;28;20103;-89
2022/04/05 05:09:09;;;;;;;12.73;12.00;;;-0.60;99.90;;;;;;4164338;28;20097;-90
2022/04/05 05:11:37;;;;;;;13.93;13.32;;;-0.70;99.90;;;;;;4177531;28;20106;-89
2022/04/05 05:13:40;;;;;;;14.20;13.57;;;-0.70;99.90;;;;;;4071163;29;20079;-89
2022/04/05 05:15:44;;;;;;;12.30;11.57;;;-0.70;99.90;;;;;;4079110;29;20593;-89
2022/04/05 05:17:48;;;;;;;11.38;10.88;;;-0.80;99.90;;;;;;4095053;28;20047;-89
2022/04/05 05:19:50;;;;;;;10.63;10.13;;;-0.80;99.90;;;;;;4110050;28;20443;-88
2022/04/05 05:21:52;;;;;;;13.00;12.60;;;-0.80;99.90;;;;;;4095728;28;20172;-87
2022/04/05 05:23:54;;;;;;;12.80;12.23;;;-0.70;99.90;;;;;;4089695;29;20049;-86
2022/04/05 05:25:57;;;;;;;11.32;10.82;;;-0.60;99.90;;;;;;4112420;28;20035;-85
2022/04/05 05:28:00;;;;;;;12.57;11.85;;;-0.60;99.90;;;;;;4114735;28;20055;-86
2022/04/05 05:30:07;;;;;;;;;;;-0.70;99.90;;;;;;4105798;28;20086;-86
2022/04/05 05:32:10;;;;;;;13.05;12.07;;;-0.70;99.90;;;;;;4100694;28;19965;-86
2022/04/05 05:34:20;;;;;;;12.73;11.85;;;-0.70;99.90;;;;;;4128390;28;20049;-86
2022/04/05 05:36:22;;;;;;;12.20;11.48;;;-0.70;99.90;;;;;;4106509;28;20506;-86
2022/04/05 05:38:26;;;;;;;11.18;10.65;;;-0.70;99.90;;;;;;4080549;29;20087;-86
2022/04/05 05:40:28;;;;;;;11.85;11.43;;;-0.80;99.90;;;;;;4110188;28;20468;-86
2022/04/05 05:42:30;;;;;;;11.63;10.93;;;-0.80;99.90;;;;;;4111988;28;20043;-86
2022/04/05 05:44:34;;;;;;;13.55;12.65;;;-0.70;99.90;;;;;;4113724;28;20051;-86
2022/04/05 05:46:36;;;;;;;11.68;11.13;;;-0.60;99.90;;;;;;4113059;28;20595;-86
2022/04/05 05:48:39;;;;;;;12.02;11.45;;;-0.60;99.90;;;;;;4111660;28;20073;-86
2022/04/05 05:50:41;;;;;;;10.35;10.00;;;-0.50;99.90;;;;;;4150658;28;20060;-86
2022/04/05 05:52:46;;;;;;;27.73;24.70;;;-0.50;99.90;;;;;;4162347;28;20048;-86
2022/04/05 05:54:50;;;;;;;13.65;12.90;;;-0.40;99.90;;;;;;4196549;28;20036;-86
2022/04/05 05:56:52;;;;;;;11.77;11.35;;;-0.40;99.90;;;;;;4179437;28;20065;-86
2022/04/05 05:58:54;;;;;;;11.35;10.93;;;-0.40;99.90;;;;;;4164168;28;20111;-86
2022/04/05 06:00:56;;;;;;;13.88;13.05;;;-0.40;99.90;;;;;;4180136;28;20475;-86
2022/04/05 06:03:03;;;;;;;17.25;15.82;;;-0.30;99.90;;;;;;4196898;28;20036;-86
2022/04/05 06:05:08;;;;;;;15.00;13.95;;;-0.30;99.90;;;;;;4178775;28;20055;-84
2022/04/05 06:07:16;;;;;;;11.55;10.93;;;-0.30;99.90;;;;;;4167292;28;20065;-84
2022/04/05 06:09:19;;;;;;;12.05;11.65;;;-0.30;99.90;;;;;;4179673;28;20029;-85
2022/04/05 06:11:21;;;;;;;12.27;11.93;;;-0.20;99.90;;;;;;4179935;28;20525;-85
2022/04/05 06:13:26;;;;;;;13.73;12.95;;;-0.10;99.90;;;;;;4196270;28;20048;-85
2022/04/05 06:15:29;;;;;;;13.48;12.65;;;0.00;99.90;;;;;;4161980;28;20046;-85
2022/04/05 06:17:31;;;;;;;20.92;19.02;;;0.10;99.90;;;;;;4161657;28;20073;-84
2022/04/05 06:19:33;;;;;;;16.60;15.15;;;0.20;99.90;;;;;;4195008;28;20664;-85
2022/04/05 06:21:36;;;;;;;16.67;14.93;;;0.30;99.90;;;;;;4161871;28;20079;-85
2022/04/05 06:23:40;;;;;;;16.77;15.70;;;0.40;99.90;;;;;;4163747;28;20037;-85
2022/04/05 06:25:43;;;;;;;16.95;15.93;;;0.50;99.90;;;;;;4180272;28;20061;-85
2022/04/05 06:27:46;;;;;;;16.55;15.15;;;0.70;99.90;;;;;;4163403;28;20494;-85
2022/04/05 06:29:48;;;;;;;;;;;0.70;99.90;;;;;;4150376;28;20042;-85
2022/04/05 06:31:51;;;;;;;12.23;11.70;;;0.90;99.90;;;;;;4194695;28;20003;-84
2022/04/05 06:33:58;;;;;;;13.32;12.43;;;0.90;99.90;;;;;;4163278;28;20052;-84
2022/04/05 06:36:00;;;;;;;10.38;9.85;;;1.00;99.90;;;;;;4178822;28;20460;-85
2022/04/05 06:38:03;;;;;;;9.55;9.35;;;1.10;99.90;;;;;;4166220;28;20050;-85
2022/04/05 06:40:07;;;;;;;8.52;8.18;;;1.30;99.90;;;;;;4176478;28;20795;-84
2022/04/05 06:42:09;;;;;;;8.52;8.27;;;1.40;99.90;;;;;;4179130;28;20456;-86
2022/04/05 06:44:11;;;;;;;8.65;8.23;;;1.60;99.90;;;;;;4196264;28;20045;-85
2022/04/05 06:46:15;;;;;;;12.30;11.30;;;1.80;99.90;;;;;;4178916;28;20079;-85
2022/04/05 06:48:19;;;;;;;7.90;7.50;;;2.00;99.90;;;;;;4163521;28;20501;-85
2022/04/05 06:50:24;;;;;;;11.13;10.82;;;2.10;99.90;;;;;;4179628;28;20524;-85
2022/04/05 06:52:28;;;;;;;10.38;9.43;;;2.10;99.90;;;;;;4179554;28;20059;-85
2022/04/05 06:54:31;;;;;;;7.78;7.57;;;2.20;99.90;;;;;;4145443;28;20054;-85
2022/04/05 06:56:34;;;;;;;11.18;10.48;;;2.30;99.90;;;;;;4163177;28;20041;-85
2022/04/05 06:58:36;;;;;;;7.93;7.63;;;2.40;99.90;;;;;;4179733;28;20895;-85
2022/04/05 07:00:39;;;;;;;8.30;8.00;;;2.40;99.90;;;;;;4195996;28;20036;-85
2022/04/05 07:02:41;;;;;;;7.07;6.97;;;2.50;99.90;;;;;;4179393;28;20421;-85
2022/04/05 07:04:45;;;;;;;9.02;8.63;;;2.70;99.90;;;;;;4162984;28;20065;-85
2022/04/05 07:06:47;;;;;;;7.15;6.95;;;2.80;99.90;;;;;;4168864;28;20056;-85
2022/04/05 07:08:50;;;;;;;6.32;6.18;;;3.00;99.90;;;;;;4177046;28;20040;-85
2022/04/05 07:10:55;;;;;;;7.75;7.55;;;3.20;99.90;;;;;;4162993;28;20049;-85
2022/04/05 07:12:57;;;;;;;6.80;6.55;;;3.30;99.90;;;;;;4161918;28;20096;-86
2022/04/05 07:15:00;;;;;;;7.82;7.07;;;3.40;99.90;;;;;;4170110;28;20099;-85
2022/04/05 07:17:04;;;;;;;10.00;9.38;;;3.50;99.90;;;;;;4163630;28;20049;-85
2022/04/05 07:19:06;;;;;;;12.25;11.07;;;3.70;99.90;;;;;;4179085;28;20470;-85
2022/04/05 07:21:08;;;;;;;7.90;7.50;;;3.80;99.90;;;;;;4179335;28;20036;-87
2022/04/05 07:23:11;;;;;;;10.35;9.63;;;3.90;99.90;;;;;;4162869;28;20448;-85
2022/04/05 07:25:14;;;;;;;;;;;4.00;99.90;;;;;;4179746;28;20040;-85
2022/04/05 07:27:17;;;;;;;12.95;11.52;;;4.30;99.90;;;;;;4174953;28;19924;-85
2022/04/05 07:29:19;;;;;;;17.77;14.60;;;4.40;99.90;;;;;;4164773;28;20045;-85
2022/04/05 07:31:21;;;;;;;16.45;15.05;;;4.50;99.90;;;;;;4177983;28;20041;-85
2022/04/05 07:33:25;;;;;;;8.57;8.27;;;4.70;99.90;;;;;;4161311;28;20042;-85
2022/04/05 07:35:29;;;;;;;11.40;10.45;;;4.90;99.90;;;;;;4162597;28;20057;-86
2022/04/05 07:37:32;;;;;;;9.35;8.57;;;5.00;99.90;;;;;;4175141;28;20052;-85
2022/04/05 07:39:36;;;;;;;9.85;9.20;;;5.10;99.90;;;;;;4168799;28;20037;-85
2022/04/05 07:41:40;;;;;;;8.52;7.90;;;5.30;99.90;;;;;;4180334;28;20095;-85
2022/04/05 07:43:42;;;;;;;7.82;7.10;;;5.40;99.90;;;;;;4169618;28;20041;-86
2022/04/05 07:45:45;;;;;;;7.78;7.28;;;5.70;99.90;;;;;;4179250;28;20049;-85
2022/04/05 07:47:49;;;;;;;10.93;10.00;;;5.90;99.90;;;;;;4179088;28;20148;-85
2022/04/05 07:49:52;;;;;;;14.70;12.60;;;6.10;99.90;;;;;;4161712;28;20080;-85
2022/04/05 07:51:56;;;;;;;6.43;6.22;;;6.20;99.90;;;;;;4161422;28;20029;-85
2022/04/05 07:53:59;;;;;;;5.05;4.85;;;6.20;99.90;;;;;;4163383;28;20091;-85
2022/04/05 07:56:04;;;;;;;5.90;5.57;;;6.30;99.90;;;;;;4176405;28;20045;-85
2022/04/05 07:58:06;;;;;;;4.28;4.18;;;6.40;99.90;;;;;;4162634;28;20068;-85
2022/04/05 08:00:10;;;;;;;3.38;3.28;;;6.60;99.90;;;;;;4162780;28;20037;-86
2022/04/05 08:02:12;;;;;;;3.70;3.50;;;6.70;99.90;;;;;;4193924;28;20879;-85
2022/04/05 08:04:32;;;;;;;3.33;3.22;;;6.90;99.90;;;;;;4162248;28;20049;-85
2022/04/05 08:06:34;;;;;;;2.85;2.85;;;6.90;99.90;;;;;;4190194;28;20374;-86
2022/04/05 08:08:36;;;;;;;2.90;2.80;;;7.10;99.90;;;;;;4176906;28;20074;-85
2022/04/05 08:11:00;;;;;;;4.38;3.92;;;7.30;99.90;;;;;;4180338;28;20071;-86
2022/04/05 08:13:03;;;;;;;4.35;4.03;;;7.40;99.90;;;;;;4178414;28;20044;-85
2022/04/05 08:15:06;;;;;;;3.03;2.92;;;7.70;99.90;;;;;;4160553;28;20041;-85
2022/04/05 08:17:11;;;;;;;3.47;3.28;;;7.80;99.90;;;;;;4175899;28;20041;-85
2022/04/05 08:19:13;;;;;;;2.78;2.67;;;7.90;99.90;;;;;;4160099;28;20053;-86
2022/04/05 08:21:18;;;;;;;5.03;4.20;;;7.80;99.90;;;;;;4194478;28;20043;-85
2022/04/05 08:23:21;;;;;;;4.82;4.43;;;7.90;99.90;;;;;;4178023;28;20131;-86
2022/04/05 08:25:24;;;;;;;5.15;3.58;;;8.40;99.90;;;;;;4169562;28;20034;-86
2022/04/05 08:27:27;;;;;;;3.72;3.63;;;8.60;99.90;;;;;;4152491;28;20064;-86
2022/04/05 08:29:29;;;;;;;4.25;4.03;;;8.80;99.90;;;;;;4176817;28;20095;-86
2022/04/05 08:31:31;;;;;;;4.90;3.83;;;8.80;99.90;;;;;;4160745;28;20096;-86
2022/04/05 08:33:34;;;;;;;4.63;4.32;;;9.10;99.90;;;;;;4160490;28;20881;-86
2022/04/05 08:35:39;;;;;;;4.30;4.10;;;9.20;99.90;;;;;;4177023;28;20049;-86
2022/04/05 08:37:42;;;;;;;3.90;3.75;;;9.50;99.90;;;;;;4176663;28;20041;-86
2022/04/05 08:39:44;;;;;;;3.50;3.35;;;9.80;99.90;;;;;;4160294;28;20485;-85
2022/04/05 08:41:47;;;;;;;4.15;4.00;;;10.30;99.90;;;;;;4156368;28;20041;-85
2022/04/05 08:43:50;;;;;;;5.00;4.60;;;10.60;99.90;;;;;;4168699;28;20037;-86
2022/04/05 08:46:01;;;;;;;3.47;3.38;;;10.70;99.90;;;;;;4169789;28;20041;-85
2022/04/05 08:48:09;;;;;;;4.70;4.40;;;10.90;99.90;;;;;;4172854;28;20041;-85
2022/04/05 08:50:20;;;;;;;3.60;3.50;;;10.80;99.90;;;;;;4166726;28;20044;-85
2022/04/05 08:52:24;;;;;;;4.22;4.03;;;11.20;99.90;;;;;;4193156;28;20041;-85
2022/04/05 08:54:26;;;;;;;3.65;3.45;;;11.50;99.90;;;;;;4176520;28;20544;-85
2022/04/05 08:56:30;;;;;;;2.53;2.42;;;11.60;99.90;;;;;;4176327;28;20076;-85
2022/04/05 08:58:58;;;;;;;2.90;1.88;;;11.50;99.90;;;;;;4144707;28;20088;-86
2022/04/05 09:01:01;;;;;;;3.67;3.33;;;12.10;99.90;;;;;;4078578;29;20048;-85
2022/04/05 09:03:06;;;;;;;2.67;2.55;;;12.20;99.90;;;;;;4062983;29;20103;-86
2022/04/05 09:05:24;;;;;;;3.08;2.95;;;11.80;99.90;;;;;;4078367;29;20087;-85
2022/04/05 09:08:15;;;;;;;3.63;2.95;;;12.10;99.90;;;;;;4094845;29;20519;-85
2022/04/05 09:10:19;;;;;;;3.08;1.90;;;12.60;99.90;;;;;;4053952;29;20109;-86
2022/04/05 09:12:22;;;;;;;3.15;3.05;;;12.80;99.90;;;;;;4047492;29;20125;-85
2022/04/05 09:14:27;;;;;;;3.28;3.10;;;12.80;99.60;;;;;;4047170;29;20577;-85
2022/04/05 09:16:32;;;;;;;2.53;2.42;;;12.90;99.90;;;;;;4060178;29;20140;-85
2022/04/05 09:18:44;;;;;;;2.05;1.92;;;13.30;98.80;;;;;;4063390;29;20049;-86
2022/04/05 09:20:48;;;;;;;1.67;1.58;;;13.10;96.90;;;;;;4047841;29;20057;-85
2022/04/05 09:22:54;;;;;;;1.85;1.75;;;13.00;97.20;;;;;;4062892;29;20036;-85
2022/04/05 09:25:05;;;;;;;1.30;1.30;;;13.20;95.50;;;;;;4062590;29;20095;-85
2022/04/05 09:27:07;;;;;;;1.30;1.30;;;13.40;94.00;;;;;;4062783;29;20055;-85
2022/04/05 09:29:11;;;;;;;10.15;1.67;;;13.50;95.70;;;;;;4059887;29;20048;-86
2022/04/05 09:31:18;;;;;;;1.50;1.30;;;13.70;93.40;;;;;;4062715;29;20083;-85
2022/04/05 09:33:22;;;;;;;1.70;1.70;;;14.00;91.80;;;;;;4057007;29;20079;-86
2022/04/05 09:35:30;;;;;;;1.30;1.30;;;14.10;93.90;;;;;;4061030;29;20048;-85
2022/04/05 09:37:38;;;;;;;1.70;1.60;;;13.70;90.20;;;;;;4070873;28;20066;-85
2022/04/05 09:39:41;;;;;;;2.40;1.20;;;13.50;90.60;;;;;;4110020;28;20157;-85
2022/04/05 09:42:00;;;;;;;1.50;1.42;;;13.70;92.30;;;;;;4111244;28;20042;-86
2022/04/05 09:44:04;;;;;;;1.40;1.40;;;13.80;90.30;;;;;;4127936;28;20050;-86
2022/04/05 09:46:06;;;;;;;1.52;1.52;;;14.10;88.90;;;;;;4120487;28;20080;-86
2022/04/05 09:48:08;;;;;;;1.63;1.63;;;14.10;85.60;;;;;;4170211;28;20388;-86
2022/04/05 09:50:12;;;;;;;1.70;1.60;;;14.20;88.40;;;;;;4149455;28;20037;-86
2022/04/05 09:52:34;;;;;;;2.13;1.40;;;14.30;85.60;;;;;;4160714;28;20091;-86
2022/04/05 09:54:37;;;;;;;1.43;1.43;;;13.80;86.90;;;;;;4192367;28;20041;-85
2022/04/05 09:56:39;;;;;;;1.83;1.73;;;13.80;86.30;;;;;;4168612;28;20037;-86
2022/04/05 09:58:49;;;;;;;1.83;1.27;;;14.30;90.60;;;;;;4186248;28;20090;-86
2022/04/05 10:01:14;;;;;;;1.75;1.65;;;15.00;90.70;;;;;;4175220;28;20032;-86
2022/04/05 10:03:19;;;;;;;1.70;1.70;;;14.50;87.40;;;;;;4158018;28;20041;-86
2022/04/05 10:05:22;;;;;;;1.40;1.40;;;14.30;89.10;;;;;;4184071;28;20045;-86
2022/04/05 10:07:25;;;;;;;1.98;1.60;;;14.30;86.10;;;;;;4171996;28;20103;-86
2022/04/05 10:09:28;;;;;;;1.45;1.45;;;14.00;87.80;;;;;;4173605;28;20072;-85
2022/04/05 10:11:32;;;;;;;;;;;14.50;90.90;;;;;;4157480;28;20041;-86
2022/04/05 10:13:36;;;;;;;1.30;1.20;;;14.30;85.20;;;;;;4155231;28;19925;-86
2022/04/05 10:15:39;;;;;;;2.05;1.65;;;14.50;84.00;;;;;;4165620;28;20033;-87
2022/04/05 10:17:45;;;;;;;2.22;2.13;;;14.70;84.80;;;;;;4177366;28;20041;-86
2022/04/05 10:19:50;;;;;;;1.50;1.50;;;15.20;86.80;;;;;;4160245;28;20046;-85
2022/04/05 10:21:55;;;;;;;1.67;1.50;;;15.60;85.60;;;;;;4190062;28;20041;-86
2022/04/05 10:23:58;;;;;;;1.50;1.40;;;15.60;85.20;;;;;;4171593;28;20052;-88
2022/04/05 10:26:01;;;;;;;2.15;1.60;;;15.60;86.40;;;;;;4175357;28;20029;-86
2022/04/05 10:28:03;;;;;;;1.92;1.83;;;15.70;86.60;;;;;;4178407;28;20049;-85
2022/04/05 10:30:10;;;;;;;;;;;16.00;88.50;;;;;;4192557;28;20039;-86
2022/04/05 10:32:22;;;;;;;1.10;1.10;;;15.70;88.00;;;;;;4159473;28;19921;-85
2022/04/05 10:34:45;;;;;;;1.30;1.20;;;15.30;89.70;;;;;;4148528;28;20147;-85
2022/04/05 10:37:06;;;;;;;1.30;1.30;;;15.30;83.70;;;;;;4190201;28;20045;-85
2022/04/05 10:39:22;;;;;;;2.60;1.75;;;15.50;85.40;;;;;;4162691;28;20045;-85
2022/04/05 10:41:25;;;;;;;2.88;2.05;;;15.50;81.00;;;;;;4166599;28;20064;-86
2022/04/05 10:43:29;;;;;;;1.35;1.35;;;15.60;81.70;;;;;;4148064;28;20033;-86
2022/04/05 10:45:42;;;;;;;1.80;1.80;;;16.30;83.60;;;;;;4161878;28;20099;-86
2022/04/05 10:48:11;;;;;;;2.30;2.20;;;16.10;81.80;;;;;;4179427;28;20500;-86